createdAt,value
2018-09-20T00:00:03.211Z,6.45
2018-09-20T00:00:38.393Z,5.25
2018-09-20T00:01:13.995Z,6.72
2018-09-20T00:01:49.327Z,6.20
2018-09-20T00:02:24.524Z,6.20
2018-09-20T00:02:59.744Z,6.10
2018-09-20T00:03:35.028Z,5.80
2018-09-20T00:04:10.167Z,5.97
2018-09-20T00:04:45.615Z,6.12
2018-09-20T00:05:20.854Z,6.05
2018-09-20T00:05:56.026Z,6.35
2018-09-20T00:06:31.346Z,7.00
2018-09-20T00:07:06.590Z,5.95
2018-09-20T00:07:41.826Z,6.87
2018-09-20T00:08:17.321Z,6.03
2018-09-20T00:08:52.519Z,6.37
2018-09-20T00:09:27.706Z,6.22
2018-09-20T00:10:03.024Z,6.22
2018-09-20T00:10:38.207Z,5.90
2018-09-20T00:11:14.132Z,6.55
2018-09-20T00:11:49.391Z,6.03
2018-09-20T00:12:24.638Z,6.33
2018-09-20T00:12:59.819Z,7.40
2018-09-20T00:13:34.990Z,6.65
2018-09-20T00:14:10.166Z,6.92
2018-09-20T00:14:45.530Z,6.08
2018-09-20T00:15:20.895Z,6.80
2018-09-20T00:15:56.155Z,6.47
2018-09-20T00:16:31.356Z,5.90
2018-09-20T00:17:06.783Z,6.55
2018-09-20T00:17:42.163Z,6.80
2018-09-20T00:18:17.482Z,6.05
2018-09-20T00:18:52.720Z,6.47
2018-09-20T00:19:27.882Z,6.92
2018-09-20T00:20:03.139Z,6.67
2018-09-20T00:20:38.330Z,6.62
2018-09-20T00:21:13.269Z,6.87
2018-09-20T00:21:48.747Z,6.60
2018-09-20T00:22:24.061Z,6.53
2018-09-20T00:22:59.644Z,6.85
2018-09-20T00:23:34.822Z,6.37
2018-09-20T00:24:10.091Z,5.97
2018-09-20T00:24:45.843Z,5.87
2018-09-20T00:25:21.172Z,6.22
2018-09-20T00:25:56.424Z,6.12
2018-09-20T00:26:31.639Z,7.12
2018-09-20T00:27:07.137Z,6.50
2018-09-20T00:27:42.717Z,6.55
2018-09-20T00:28:18.007Z,5.72
2018-09-20T00:28:53.215Z,6.58
2018-09-20T00:29:28.414Z,6.40
2018-09-20T00:30:03.827Z,6.20
2018-09-20T00:30:39.050Z,6.67
2018-09-20T00:31:14.355Z,6.35
2018-09-20T00:31:49.872Z,6.12
2018-09-20T00:32:25.050Z,6.58
2018-09-20T00:33:00.219Z,6.03
2018-09-20T00:33:35.442Z,5.75
2018-09-20T00:34:10.621Z,5.75
2018-09-20T00:34:45.972Z,12.30
2018-09-20T00:35:21.282Z,8.85
2018-09-20T00:35:56.468Z,6.40
2018-09-20T00:36:31.632Z,5.80
2018-09-20T00:37:06.812Z,6.10
2018-09-20T00:37:42.303Z,6.08
2018-09-20T00:38:17.610Z,6.53
2018-09-20T00:38:52.833Z,6.42
2018-09-20T00:39:28.019Z,6.60
2018-09-20T00:40:03.198Z,6.10
2018-09-20T00:40:38.361Z,5.75
2018-09-20T00:41:13.767Z,6.55
2018-09-20T00:41:49.374Z,5.97
2018-09-20T00:42:24.693Z,6.75
2018-09-20T00:42:59.839Z,6.28
2018-09-20T00:43:35.050Z,6.33
2018-09-20T00:44:11.066Z,6.33
2018-09-20T00:44:46.860Z,5.87
2018-09-20T00:45:22.205Z,6.10
2018-09-20T00:45:57.447Z,6.17
2018-09-20T00:46:32.092Z,6.10
2018-09-20T00:47:07.247Z,6.25
2018-09-20T00:47:42.622Z,6.20
2018-09-20T00:48:17.932Z,5.85
2018-09-20T00:48:55.193Z,6.40
2018-09-20T00:49:30.383Z,5.60
2018-09-20T00:50:05.593Z,5.85
2018-09-20T00:50:40.767Z,7.12
2018-09-20T00:51:16.228Z,6.37
2018-09-20T00:51:51.443Z,6.00
2018-09-20T00:52:26.646Z,6.45
2018-09-20T00:53:01.814Z,5.97
2018-09-20T00:53:37.280Z,5.55
2018-09-20T00:54:12.521Z,6.17
2018-09-20T00:54:47.797Z,5.50
2018-09-20T00:55:23.433Z,5.90
2018-09-20T00:55:58.645Z,5.62
2018-09-20T00:56:33.793Z,6.17
2018-09-20T00:57:08.971Z,5.42
2018-09-20T00:57:44.737Z,5.65
2018-09-20T00:58:19.957Z,6.67
2018-09-20T00:58:55.251Z,6.15
2018-09-20T00:59:30.555Z,5.20
2018-09-20T01:00:05.762Z,5.75
2018-09-20T01:00:40.994Z,5.53
2018-09-20T01:01:16.363Z,6.25
2018-09-20T01:01:51.569Z,5.70
2018-09-20T01:02:26.767Z,6.25
2018-09-20T01:03:01.925Z,5.75
2018-09-20T01:03:37.079Z,5.90
2018-09-20T01:04:12.313Z,5.90
2018-09-20T01:04:47.863Z,5.72
2018-09-20T01:05:23.420Z,5.60
2018-09-20T01:05:58.590Z,5.35
2018-09-20T01:06:33.779Z,5.47
2018-09-20T01:07:08.934Z,5.78
2018-09-20T01:07:44.262Z,5.90
2018-09-20T01:08:19.717Z,5.70
2018-09-20T01:08:54.898Z,5.67
2018-09-20T01:09:30.106Z,5.10
2018-09-20T01:10:05.562Z,5.22
2018-09-20T01:10:40.727Z,5.80
2018-09-20T01:11:16.147Z,5.03
2018-09-20T01:11:52.006Z,5.67
2018-09-20T01:12:27.205Z,5.67
2018-09-20T01:13:02.373Z,5.47
2018-09-20T01:13:37.581Z,5.50
2018-09-20T01:14:12.892Z,5.87
2018-09-20T01:14:49.058Z,5.30
2018-09-20T01:15:24.243Z,5.97
2018-09-20T01:15:59.406Z,5.60
2018-09-20T01:16:34.593Z,5.47
2018-09-20T01:17:09.748Z,5.95
2018-09-20T01:17:45.238Z,6.00
2018-09-20T01:18:21.043Z,5.85
2018-09-20T01:18:56.623Z,5.65
2018-09-20T01:19:31.322Z,6.28
2018-09-20T01:20:06.896Z,6.03
2018-09-20T01:20:42.185Z,6.20
2018-09-20T01:21:17.748Z,6.30
2018-09-20T01:21:52.982Z,6.10
2018-09-20T01:22:28.164Z,5.33
2018-09-20T01:23:03.321Z,5.70
2018-09-20T01:23:38.486Z,6.20
2018-09-20T01:24:13.957Z,5.85
2018-09-20T01:24:49.523Z,5.95
2018-09-20T01:25:24.710Z,5.70
2018-09-20T01:25:59.881Z,5.50
2018-09-20T01:26:35.063Z,5.50
2018-09-20T01:27:10.279Z,6.17
2018-09-20T01:27:45.920Z,5.62
2018-09-20T01:28:21.177Z,6.50
2018-09-20T01:28:56.345Z,5.87
2018-09-20T01:29:31.561Z,6.35
2018-09-20T01:30:07.331Z,6.12
2018-09-20T01:30:42.688Z,6.00
2018-09-20T01:31:18.111Z,5.53
2018-09-20T01:31:53.446Z,5.58
2018-09-20T01:32:28.633Z,6.62
2018-09-20T01:33:03.806Z,5.92
2018-09-20T01:33:38.990Z,6.08
2018-09-20T01:34:14.468Z,6.10
2018-09-20T01:34:49.870Z,5.85
2018-09-20T01:35:25.329Z,5.92
2018-09-20T01:36:00.623Z,5.97
2018-09-20T01:36:35.821Z,5.97
2018-09-20T01:37:11.018Z,6.12
2018-09-20T01:37:46.505Z,6.17
2018-09-20T01:38:21.714Z,6.05
2018-09-20T01:38:56.902Z,5.95
2018-09-20T01:39:32.066Z,5.78
2018-09-20T01:40:07.626Z,6.35
2018-09-20T01:40:43.630Z,5.67
2018-09-20T01:41:19.710Z,5.80
2018-09-20T01:41:54.920Z,6.37
2018-09-20T01:42:30.103Z,6.70
2018-09-20T01:43:05.669Z,5.70
2018-09-20T01:43:41.196Z,5.37
2018-09-20T01:44:16.653Z,5.70
2018-09-20T01:44:52.004Z,5.85
2018-09-20T01:45:27.173Z,6.28
2018-09-20T01:46:02.537Z,6.05
2018-09-20T01:46:37.972Z,5.60
2018-09-20T01:47:13.342Z,5.87
2018-09-20T01:47:48.932Z,6.05
2018-09-20T01:48:24.132Z,6.28
2018-09-20T01:48:59.301Z,5.67
2018-09-20T01:49:34.534Z,5.22
2018-09-20T01:50:10.203Z,5.85
2018-09-20T01:50:46.935Z,5.80
2018-09-20T01:51:22.221Z,6.37
2018-09-20T01:51:57.415Z,5.95
2018-09-20T01:52:32.609Z,6.30
2018-09-20T01:53:07.931Z,6.28
2018-09-20T01:53:43.104Z,5.70
2018-09-20T01:54:18.591Z,5.58
2018-09-20T01:54:53.977Z,5.92
2018-09-20T01:55:29.197Z,6.28
2018-09-20T01:56:04.374Z,6.25
2018-09-20T01:56:39.667Z,6.28
2018-09-20T01:57:14.915Z,5.87
2018-09-20T01:57:50.675Z,5.95
2018-09-20T01:58:25.989Z,5.97
2018-09-20T01:59:01.709Z,6.17
2018-09-20T01:59:36.881Z,6.25
2018-09-20T02:00:12.082Z,6.17
2018-09-20T02:00:47.407Z,5.92
2018-09-20T02:01:22.938Z,5.95
2018-09-20T02:01:58.132Z,6.05
2018-09-20T02:02:33.475Z,6.15
2018-09-20T02:03:08.610Z,5.83
2018-09-20T02:03:43.830Z,6.15
2018-09-20T02:04:19.913Z,5.95
2018-09-20T02:04:55.634Z,6.37
2018-09-20T02:05:31.209Z,6.10
2018-09-20T02:06:06.773Z,6.83
2018-09-20T02:06:41.929Z,5.92
2018-09-20T02:07:17.333Z,5.67
2018-09-20T02:07:52.738Z,5.67
2018-09-20T02:08:27.416Z,5.83
2018-09-20T02:09:02.939Z,6.08
2018-09-20T02:09:38.197Z,5.67
2018-09-20T02:10:13.374Z,6.03
2018-09-20T02:10:48.910Z,5.80
2018-09-20T02:11:24.414Z,6.33
2018-09-20T02:11:59.588Z,6.00
2018-09-20T02:12:34.765Z,6.30
2018-09-20T02:13:09.934Z,6.10
2018-09-20T02:13:45.110Z,6.22
2018-09-20T02:14:20.475Z,6.80
2018-09-20T02:14:55.746Z,6.15
2018-09-20T02:15:31.150Z,6.15
2018-09-20T02:16:06.554Z,6.00
2018-09-20T02:16:41.727Z,6.28
2018-09-20T02:17:17.007Z,5.95
2018-09-20T02:17:52.340Z,6.67
2018-09-20T02:18:27.540Z,6.22
2018-09-20T02:19:02.709Z,5.70
2018-09-20T02:19:37.909Z,6.30
2018-09-20T02:20:13.114Z,6.00
2018-09-20T02:20:48.448Z,6.37
2018-09-20T02:21:23.872Z,5.97
2018-09-20T02:21:59.130Z,5.92
2018-09-20T02:22:34.298Z,6.50
2018-09-20T02:23:09.615Z,5.78
2018-09-20T02:23:44.789Z,6.33
2018-09-20T02:24:20.589Z,6.35
2018-09-20T02:24:56.086Z,6.60
2018-09-20T02:25:31.352Z,5.80
2018-09-20T02:26:06.510Z,6.28
2018-09-20T02:26:41.707Z,6.62
2018-09-20T02:27:16.974Z,6.10
2018-09-20T02:27:52.415Z,6.42
2018-09-20T02:28:27.612Z,7.03
2018-09-20T02:29:02.772Z,6.08
2018-09-20T02:29:38.342Z,6.25
2018-09-20T02:30:13.527Z,5.78
2018-09-20T02:30:49.058Z,6.58
2018-09-20T02:31:24.537Z,8.00
2018-09-20T02:31:59.780Z,6.62
2018-09-20T02:32:34.987Z,6.20
2018-09-20T02:33:10.171Z,6.20
2018-09-20T02:33:45.349Z,6.40
2018-09-20T02:34:20.852Z,6.12
2018-09-20T02:34:56.090Z,7.10
2018-09-20T02:35:31.296Z,6.10
2018-09-20T02:36:06.539Z,5.37
2018-09-20T02:36:41.706Z,6.22
2018-09-20T02:37:17.357Z,6.12
2018-09-20T02:37:52.146Z,6.65
2018-09-20T02:38:27.317Z,6.75
2018-09-20T02:39:02.517Z,6.05
2018-09-20T02:39:37.755Z,6.17
2018-09-20T02:40:12.977Z,6.92
2018-09-20T02:40:48.530Z,6.67
2018-09-20T02:41:23.403Z,6.17
2018-09-20T02:41:58.623Z,6.22
2018-09-20T02:42:33.800Z,5.97
2018-09-20T02:43:08.989Z,6.17
2018-09-20T02:43:44.155Z,6.15
2018-09-20T02:44:19.653Z,6.50
2018-09-20T02:44:55.230Z,5.85
2018-09-20T02:45:31.163Z,7.08
2018-09-20T02:46:06.382Z,6.78
2018-09-20T02:46:41.796Z,6.30
2018-09-20T02:47:17.326Z,6.35
2018-09-20T02:47:52.585Z,6.80
2018-09-20T02:48:27.803Z,7.15
2018-09-20T02:49:03.011Z,6.62
2018-09-20T02:49:38.171Z,6.50
2018-09-20T02:50:13.402Z,6.37
2018-09-20T02:50:48.978Z,6.60
2018-09-20T02:51:24.434Z,6.55
2018-09-20T02:51:59.665Z,6.70
2018-09-20T02:52:34.867Z,6.92
2018-09-20T02:53:10.042Z,6.67
2018-09-20T02:53:45.780Z,6.58
2018-09-20T02:54:21.128Z,6.95
2018-09-20T02:54:56.369Z,6.28
2018-09-20T02:55:31.631Z,6.75
2018-09-20T02:56:06.812Z,6.92
2018-09-20T02:56:41.979Z,6.75
2018-09-20T02:57:18.040Z,6.70
2018-09-20T02:57:53.323Z,7.15
2018-09-20T02:58:28.566Z,7.72
2018-09-20T02:59:03.807Z,6.97
2018-09-20T02:59:39.200Z,7.87
2018-09-20T03:00:14.375Z,7.53
2018-09-20T03:00:49.885Z,7.62
2018-09-20T03:01:25.278Z,7.15
2018-09-20T03:02:00.482Z,7.50
2018-09-20T03:02:35.670Z,7.17
2018-09-20T03:03:10.834Z,7.10
2018-09-20T03:03:46.399Z,7.47
2018-09-20T03:04:21.763Z,8.08
2018-09-20T03:04:57.229Z,7.12
2018-09-20T03:05:32.419Z,7.37
2018-09-20T03:06:07.644Z,7.17
2018-09-20T03:06:42.828Z,7.20
2018-09-20T03:07:18.841Z,8.10
2018-09-20T03:07:54.145Z,7.50
2018-09-20T03:08:29.511Z,7.50
2018-09-20T03:09:06.882Z,7.22
2018-09-20T03:09:42.052Z,7.28
2018-09-20T03:10:17.504Z,8.40
2018-09-20T03:10:52.963Z,7.90
2018-09-20T03:11:28.547Z,7.85
2018-09-20T03:12:03.881Z,8.03
2018-09-20T03:12:39.117Z,7.45
2018-09-20T03:13:14.388Z,8.05
2018-09-20T03:13:49.951Z,7.45
2018-09-20T03:14:25.290Z,7.62
2018-09-20T03:15:00.542Z,7.78
2018-09-20T03:15:35.824Z,7.37
2018-09-20T03:16:11.048Z,7.12
2018-09-20T03:16:46.465Z,7.65
2018-09-20T03:17:21.930Z,7.10
2018-09-20T03:17:57.222Z,7.45
2018-09-20T03:18:32.491Z,7.33
2018-09-20T03:19:07.902Z,8.23
2018-09-20T03:19:43.267Z,7.28
2018-09-20T03:20:18.691Z,7.42
2018-09-20T03:20:54.073Z,7.08
2018-09-20T03:21:29.318Z,7.53
2018-09-20T03:22:04.737Z,8.00
2018-09-20T03:22:39.890Z,7.78
2018-09-20T03:23:15.058Z,6.92
2018-09-20T03:23:50.557Z,8.30
2018-09-20T03:24:26.069Z,7.55
2018-09-20T03:25:01.278Z,7.12
2018-09-20T03:25:36.454Z,7.05
2018-09-20T03:26:11.650Z,6.97
2018-09-20T03:26:46.975Z,7.65
2018-09-20T03:27:22.336Z,7.47
2018-09-20T03:27:57.663Z,7.33
2018-09-20T03:28:32.844Z,7.15
2018-09-20T03:29:08.014Z,7.75
2018-09-20T03:29:43.201Z,7.00
2018-09-20T03:30:18.840Z,7.50
2018-09-20T03:30:54.608Z,7.65
2018-09-20T03:31:29.919Z,7.45
2018-09-20T03:32:05.104Z,8.15
2018-09-20T03:32:40.531Z,7.67
2018-09-20T03:33:15.894Z,7.62
2018-09-20T03:33:51.722Z,7.75
2018-09-20T03:34:27.108Z,7.47
2018-09-20T03:35:02.491Z,8.43
2018-09-20T03:35:37.822Z,7.90
2018-09-20T03:36:13.239Z,8.03
2018-09-20T03:36:48.178Z,9.05
2018-09-20T03:37:23.805Z,7.85
2018-09-20T03:37:59.057Z,8.18
2018-09-20T03:38:34.235Z,7.75
2018-09-20T03:39:10.643Z,9.15
2018-09-20T03:39:46.429Z,8.85
2018-09-20T03:40:21.803Z,7.53
2018-09-20T03:40:57.117Z,8.03
2018-09-20T03:41:32.334Z,8.45
2018-09-20T03:42:07.578Z,8.00
2018-09-20T03:42:42.780Z,8.40
2018-09-20T03:43:18.146Z,8.45
2018-09-20T03:43:53.595Z,8.30
2018-09-20T03:44:29.007Z,9.40
2018-09-20T03:45:04.223Z,8.08
2018-09-20T03:45:39.423Z,8.50
2018-09-20T03:46:14.651Z,8.65
2018-09-20T03:46:50.088Z,8.23
2018-09-20T03:47:25.630Z,8.80
2018-09-20T03:48:00.901Z,8.58
2018-09-20T03:48:36.059Z,8.30
2018-09-20T03:49:11.263Z,8.43
2018-09-20T03:49:46.551Z,7.75
2018-09-20T03:50:22.277Z,8.55
2018-09-20T03:50:57.696Z,8.08
2018-09-20T03:51:32.905Z,7.90
2018-09-20T03:52:08.084Z,8.85
2018-09-20T03:52:43.287Z,8.60
2018-09-20T03:53:18.645Z,8.83
2018-09-20T03:53:54.063Z,8.75
2018-09-20T03:54:29.352Z,8.28
2018-09-20T03:55:04.607Z,9.25
2018-09-20T03:55:39.823Z,8.00
2018-09-20T03:56:15.016Z,9.18
2018-09-20T03:56:50.845Z,9.15
2018-09-20T03:57:26.224Z,8.40
2018-09-20T03:58:01.460Z,8.85
2018-09-20T03:58:36.653Z,8.73
2018-09-20T03:59:11.889Z,8.95
2018-09-20T03:59:47.338Z,8.80
2018-09-20T04:00:23.036Z,9.28
2018-09-20T04:00:58.310Z,8.58
2018-09-20T04:01:33.492Z,8.58
2018-09-20T04:02:08.743Z,8.90
2018-09-20T04:02:43.954Z,9.13
2018-09-20T04:03:19.430Z,8.93
2018-09-20T04:03:54.866Z,9.30
2018-09-20T04:04:30.074Z,8.50
2018-09-20T04:05:05.670Z,9.58
2018-09-20T04:05:40.971Z,8.80
2018-09-20T04:06:16.362Z,8.88
2018-09-20T04:06:51.759Z,8.98
2018-09-20T04:07:26.603Z,9.23
2018-09-20T04:08:01.822Z,9.03
2018-09-20T04:08:37.025Z,8.80
2018-09-20T04:09:12.945Z,8.60
2018-09-20T04:09:48.603Z,8.58
2018-09-20T04:10:23.780Z,8.25
2018-09-20T04:10:59.421Z,9.55
2018-09-20T04:11:34.614Z,8.68
2018-09-20T04:12:09.923Z,8.75
2018-09-20T04:12:45.224Z,9.50
2018-09-20T04:13:20.987Z,8.50
2018-09-20T04:13:56.390Z,9.18
2018-09-20T04:14:31.582Z,9.48
2018-09-20T04:15:07.105Z,9.53
2018-09-20T04:15:42.466Z,9.83
2018-09-20T04:16:18.034Z,8.88
2018-09-20T04:16:53.375Z,8.85
2018-09-20T04:17:28.661Z,8.10
2018-09-20T04:18:04.221Z,9.08
2018-09-20T04:18:39.481Z,9.93
2018-09-20T04:19:14.703Z,8.98
2018-09-20T04:19:50.015Z,11.35
2018-09-20T04:20:25.449Z,9.83
2018-09-20T04:21:00.968Z,8.90
2018-09-20T04:21:36.380Z,10.32
2018-09-20T04:22:11.620Z,9.80
2018-09-20T04:22:47.218Z,9.13
2018-09-20T04:23:22.705Z,9.05
2018-09-20T04:23:58.263Z,9.38
2018-09-20T04:24:33.540Z,9.50
2018-09-20T04:25:09.123Z,8.93
2018-09-20T04:25:44.336Z,9.00
2018-09-20T04:26:19.200Z,9.63
2018-09-20T04:26:53.975Z,9.83
2018-09-20T04:27:28.840Z,9.13
2018-09-20T04:28:04.433Z,9.83
2018-09-20T04:28:39.629Z,9.23
2018-09-20T04:29:14.845Z,9.78
2018-09-20T04:29:50.396Z,8.70
2018-09-20T04:30:26.036Z,9.20
2018-09-20T04:31:01.327Z,9.25
2018-09-20T04:31:36.621Z,9.05
2018-09-20T04:32:11.999Z,9.00
2018-09-20T04:32:47.693Z,9.75
2018-09-20T04:33:23.117Z,9.73
2018-09-20T04:34:00.011Z,8.60
2018-09-20T04:34:35.227Z,9.00
2018-09-20T04:35:10.593Z,9.63
2018-09-20T04:35:46.228Z,9.05
2018-09-20T04:36:21.777Z,9.03
2018-09-20T04:36:57.107Z,9.80
2018-09-20T04:37:32.330Z,9.35
2018-09-20T04:38:07.578Z,9.25
2018-09-20T04:38:42.803Z,9.53
2018-09-20T04:39:19.182Z,9.65
2018-09-20T04:39:54.578Z,9.73
2018-09-20T04:40:29.839Z,9.53
2018-09-20T04:41:05.186Z,9.68
2018-09-20T04:41:40.429Z,9.75
2018-09-20T04:42:15.672Z,9.15
2018-09-20T04:42:51.166Z,9.43
2018-09-20T04:43:26.538Z,9.08
2018-09-20T04:44:01.811Z,9.90
2018-09-20T04:44:37.020Z,9.88
2018-09-20T04:45:12.219Z,10.08
2018-09-20T04:45:47.546Z,9.03
2018-09-20T04:46:23.382Z,9.50
2018-09-20T04:46:58.793Z,10.60
2018-09-20T04:47:34.062Z,10.40
2018-09-20T04:48:09.282Z,10.58
2018-09-20T04:48:44.512Z,9.98
2018-09-20T04:49:20.072Z,10.95
2018-09-20T04:49:55.504Z,10.60
2018-09-20T04:50:30.842Z,10.65
2018-09-20T04:51:06.147Z,10.65
2018-09-20T04:51:41.350Z,10.28
2018-09-20T04:52:16.808Z,11.38
2018-09-20T04:52:52.452Z,10.90
2018-09-20T04:53:27.797Z,10.72
2018-09-20T04:54:03.246Z,11.43
2018-09-20T04:54:38.431Z,11.78
2018-09-20T04:55:13.702Z,10.30
2018-09-20T04:55:49.527Z,12.15
2018-09-20T04:56:25.335Z,12.30
2018-09-20T04:57:00.649Z,11.75
2018-09-20T04:57:36.190Z,11.33
2018-09-20T04:58:11.383Z,11.53
2018-09-20T04:58:46.808Z,11.35
2018-09-20T04:59:22.138Z,11.50
2018-09-20T04:59:57.542Z,11.45
2018-09-20T05:00:32.949Z,10.95
2018-09-20T05:01:08.661Z,10.93
2018-09-20T05:01:43.900Z,12.15
2018-09-20T05:02:19.245Z,11.12
2018-09-20T05:02:54.871Z,12.68
2018-09-20T05:03:30.294Z,12.45
2018-09-20T05:04:05.522Z,12.82
2018-09-20T05:04:40.754Z,12.35
2018-09-20T05:05:15.982Z,12.58
2018-09-20T05:05:51.658Z,11.75
2018-09-20T05:06:26.939Z,12.05
2018-09-20T05:07:02.193Z,11.83
2018-09-20T05:07:37.431Z,11.83
2018-09-20T05:08:12.615Z,12.03
2018-09-20T05:08:48.267Z,11.83
2018-09-20T05:09:23.569Z,12.00
2018-09-20T05:09:59.479Z,13.08
2018-09-20T05:10:34.670Z,12.33
2018-09-20T05:11:09.925Z,12.73
2018-09-20T05:11:45.183Z,11.95
2018-09-20T05:12:20.453Z,12.68
2018-09-20T05:12:55.714Z,12.73
2018-09-20T05:13:30.931Z,12.95
2018-09-20T05:14:06.175Z,12.00
2018-09-20T05:14:41.497Z,13.00
2018-09-20T05:15:16.207Z,12.05
2018-09-20T05:15:51.823Z,11.63
2018-09-20T05:16:27.320Z,11.95
2018-09-20T05:17:02.599Z,11.53
2018-09-20T05:17:37.848Z,11.55
2018-09-20T05:18:13.266Z,12.15
2018-09-20T05:18:48.678Z,11.88
2018-09-20T05:19:24.158Z,11.88
2018-09-20T05:19:59.690Z,11.83
2018-09-20T05:20:35.044Z,11.78
2018-09-20T05:21:10.214Z,12.15
2018-09-20T05:21:45.567Z,11.70
2018-09-20T05:22:20.877Z,11.85
2018-09-20T05:22:56.435Z,10.93
2018-09-20T05:23:31.658Z,11.43
2018-09-20T05:24:07.187Z,11.70
2018-09-20T05:24:42.449Z,11.70
2018-09-20T05:25:17.833Z,11.50
2018-09-20T05:25:53.221Z,12.13
2018-09-20T05:26:28.496Z,12.50
2018-09-20T05:27:03.738Z,12.82
2018-09-20T05:27:38.940Z,11.50
2018-09-20T05:28:14.219Z,12.33
2018-09-20T05:28:50.160Z,12.60
2018-09-20T05:29:25.459Z,12.68
2018-09-20T05:30:01.341Z,10.95
2018-09-20T05:30:36.630Z,11.30
2018-09-20T05:31:11.849Z,11.78
2018-09-20T05:31:47.630Z,11.65
2018-09-20T05:32:23.603Z,11.68
2018-09-20T05:32:58.610Z,11.70
2018-09-20T05:33:33.843Z,11.70
2018-09-20T05:34:09.090Z,11.97
2018-09-20T05:34:44.331Z,11.40
2018-09-20T05:35:19.833Z,11.20
2018-09-20T05:35:55.557Z,11.75
2018-09-20T05:36:30.792Z,12.10
2018-09-20T05:37:06.362Z,12.93
2018-09-20T05:37:41.556Z,12.10
2018-09-20T05:38:16.807Z,11.35
2018-09-20T05:38:52.099Z,11.57
2018-09-20T05:39:27.434Z,11.75
2018-09-20T05:40:02.666Z,11.03
2018-09-20T05:40:37.393Z,11.30
2018-09-20T05:41:12.691Z,11.35
2018-09-20T05:41:48.136Z,10.95
2018-09-20T05:42:23.520Z,10.75
2018-09-20T05:42:58.938Z,11.38
2018-09-20T05:43:34.210Z,11.73
2018-09-20T05:44:10.651Z,10.25
2018-09-20T05:44:46.129Z,11.50
2018-09-20T05:45:21.480Z,11.22
2018-09-20T05:45:56.862Z,11.25
2018-09-20T05:46:32.134Z,11.22
2018-09-20T05:47:07.718Z,11.10
2018-09-20T05:47:42.476Z,10.82
2018-09-20T05:48:17.833Z,10.88
2018-09-20T05:48:53.208Z,10.53
2018-09-20T05:49:28.598Z,11.20
2018-09-20T05:50:10.551Z,11.83
2018-09-20T05:50:46.127Z,11.63
2018-09-20T05:51:21.656Z,11.55
2018-09-20T05:51:56.998Z,11.20
2018-09-20T05:52:32.206Z,11.73
2018-09-20T05:53:07.774Z,11.68
2018-09-20T05:53:43.026Z,11.22
2018-09-20T05:54:18.678Z,11.93
2018-09-20T05:54:54.049Z,11.63
2018-09-20T05:55:29.411Z,11.95
2018-09-20T05:56:05.004Z,11.53
2018-09-20T05:56:40.222Z,11.93
2018-09-20T05:57:15.636Z,12.80
2018-09-20T05:57:51.036Z,11.38
2018-09-20T05:58:26.324Z,12.33
2018-09-20T05:59:01.601Z,11.93
2018-09-20T05:59:37.195Z,12.37
2018-09-20T06:00:12.426Z,11.75
2018-09-20T06:00:47.808Z,12.33
2018-09-20T06:01:23.102Z,12.30
2018-09-20T06:01:58.462Z,12.30
2018-09-20T06:02:33.720Z,12.80
2018-09-20T06:03:08.998Z,13.65
2018-09-20T06:03:44.356Z,11.97
2018-09-20T06:04:19.798Z,12.47
2018-09-20T06:04:55.128Z,11.35
2018-09-20T06:05:30.388Z,12.43
2018-09-20T06:06:05.619Z,12.43
2018-09-20T06:06:40.809Z,13.80
2018-09-20T06:07:16.037Z,12.58
2018-09-20T06:07:51.303Z,12.70
2018-09-20T06:08:26.758Z,11.70
2018-09-20T06:09:01.957Z,11.57
2018-09-20T06:09:37.139Z,11.85
2018-09-20T06:10:12.355Z,13.45
2018-09-20T06:10:47.481Z,12.23
2018-09-20T06:11:22.827Z,12.93
2018-09-20T06:11:58.218Z,12.10
2018-09-20T06:12:33.438Z,11.95
2018-09-20T06:13:08.702Z,12.40
2018-09-20T06:13:44.082Z,12.75
2018-09-20T06:14:19.850Z,11.88
2018-09-20T06:14:55.358Z,12.10
2018-09-20T06:15:30.601Z,11.93
2018-09-20T06:16:05.839Z,10.82
2018-09-20T06:16:41.026Z,12.00
2018-09-20T06:17:16.316Z,11.22
2018-09-20T06:17:51.820Z,11.93
2018-09-20T06:18:27.535Z,11.97
2018-09-20T06:19:02.915Z,12.40
2018-09-20T06:19:38.164Z,11.05
2018-09-20T06:20:13.377Z,11.43
2018-09-20T06:20:48.358Z,11.20
2018-09-20T06:21:23.728Z,12.07
2018-09-20T06:21:59.228Z,12.55
2018-09-20T06:22:34.469Z,13.93
2018-09-20T06:23:09.702Z,11.97
2018-09-20T06:23:44.975Z,12.73
2018-09-20T06:24:20.736Z,12.50
2018-09-20T06:24:56.411Z,12.43
2018-09-20T06:25:31.666Z,11.97
2018-09-20T06:26:06.937Z,12.80
2018-09-20T06:26:42.215Z,11.95
2018-09-20T06:27:17.808Z,13.53
2018-09-20T06:27:53.182Z,12.65
2018-09-20T06:28:28.460Z,11.85
2018-09-20T06:29:03.758Z,12.07
2018-09-20T06:29:39.019Z,12.05
2018-09-20T06:30:14.215Z,12.23
2018-09-20T06:30:49.717Z,11.97
2018-09-20T06:31:25.398Z,12.20
2018-09-20T06:32:00.591Z,11.88
2018-09-20T06:32:35.834Z,12.55
2018-09-20T06:33:11.048Z,12.60
2018-09-20T06:33:46.503Z,12.23
2018-09-20T06:34:21.854Z,12.10
2018-09-20T06:34:57.226Z,12.78
2018-09-20T06:35:33.496Z,13.08
2018-09-20T06:36:08.755Z,12.18
2018-09-20T06:36:43.997Z,11.83
2018-09-20T06:37:19.813Z,12.80
2018-09-20T06:37:55.193Z,12.95
2018-09-20T06:38:30.427Z,12.65
2018-09-20T06:39:08.731Z,12.15
2018-09-20T06:39:44.014Z,12.68
2018-09-20T06:40:20.267Z,13.22
2018-09-20T06:40:56.146Z,12.25
2018-09-20T06:41:31.586Z,13.80
2018-09-20T06:42:06.905Z,13.43
2018-09-20T06:42:42.116Z,13.70
2018-09-20T06:43:17.507Z,12.90
2018-09-20T06:43:52.918Z,13.38
2018-09-20T06:44:28.609Z,13.80
2018-09-20T06:45:03.855Z,13.08
2018-09-20T06:45:39.210Z,12.93
2018-09-20T06:46:14.610Z,12.68
2018-09-20T06:46:50.099Z,13.15
2018-09-20T06:47:25.803Z,13.65
2018-09-20T06:48:01.055Z,14.45
2018-09-20T06:48:36.301Z,15.08
2018-09-20T06:49:11.702Z,14.60
2018-09-20T06:49:47.050Z,13.35
2018-09-20T06:50:22.781Z,13.08
2018-09-20T06:50:58.762Z,14.87
2018-09-20T06:51:33.996Z,13.08
2018-09-20T06:52:09.213Z,12.85
2018-09-20T06:52:44.438Z,14.58
2018-09-20T06:53:20.030Z,14.40
2018-09-20T06:53:55.590Z,13.78
2018-09-20T06:54:30.899Z,13.00
2018-09-20T06:55:06.264Z,12.90
2018-09-20T06:55:41.550Z,13.15
2018-09-20T06:56:16.840Z,12.68
2018-09-20T06:56:52.390Z,12.80
2018-09-20T06:57:32.133Z,12.82
2018-09-20T06:58:07.490Z,13.40
2018-09-20T06:58:43.071Z,13.38
2018-09-20T06:59:18.743Z,13.20
2018-09-20T06:59:54.173Z,12.82
2018-09-20T07:00:29.778Z,13.00
2018-09-20T07:01:05.018Z,12.78
2018-09-20T07:01:40.285Z,13.13
2018-09-20T07:02:16.014Z,13.22
2018-09-20T07:02:51.633Z,13.15
2018-09-20T07:03:27.419Z,12.60
2018-09-20T07:04:03.374Z,12.70
2018-09-20T07:04:38.618Z,13.28
2018-09-20T07:05:13.886Z,13.10
2018-09-20T07:05:49.650Z,12.73
2018-09-20T07:06:25.615Z,11.78
2018-09-20T07:07:02.216Z,12.65
2018-09-20T07:07:37.476Z,13.28
2018-09-20T07:08:12.718Z,13.08
2018-09-20T07:08:48.371Z,12.35
2018-09-20T07:09:24.068Z,13.28
2018-09-20T07:09:59.380Z,14.68
2018-09-20T07:10:34.788Z,13.88
2018-09-20T07:11:10.020Z,13.45
2018-09-20T07:11:45.627Z,13.15
2018-09-20T07:12:21.370Z,12.80
2018-09-20T07:12:56.724Z,13.53
2018-09-20T07:13:32.088Z,14.45
2018-09-20T07:14:07.330Z,12.33
2018-09-20T07:14:42.546Z,13.10
2018-09-20T07:15:17.913Z,12.13
2018-09-20T07:15:53.453Z,14.40
2018-09-20T07:16:28.848Z,12.80
2018-09-20T07:17:04.183Z,12.85
2018-09-20T07:17:39.374Z,13.85
2018-09-20T07:18:15.091Z,13.00
2018-09-20T07:18:50.798Z,12.18
2018-09-20T07:19:26.115Z,13.25
2018-09-20T07:20:01.445Z,12.60
2018-09-20T07:20:36.669Z,12.82
2018-09-20T07:21:12.202Z,12.15
2018-09-20T07:21:47.818Z,13.08
2018-09-20T07:22:23.379Z,12.75
2018-09-20T07:22:58.698Z,13.30
2018-09-20T07:23:34.045Z,12.93
2018-09-20T07:24:09.274Z,13.18
2018-09-20T07:24:44.598Z,13.05
2018-09-20T07:25:20.362Z,12.07
2018-09-20T07:25:55.793Z,13.15
2018-09-20T07:26:31.360Z,11.93
2018-09-20T07:27:06.647Z,13.55
2018-09-20T07:27:41.880Z,13.40
2018-09-20T07:28:17.206Z,12.28
2018-09-20T07:28:52.622Z,12.80
2018-09-20T07:29:27.846Z,12.98
2018-09-20T07:30:03.097Z,13.13
2018-09-20T07:30:38.341Z,12.80
2018-09-20T07:31:13.579Z,13.32
2018-09-20T07:31:49.093Z,13.88
2018-09-20T07:32:24.428Z,13.93
2018-09-20T07:32:59.877Z,12.20
2018-09-20T07:33:35.162Z,13.58
2018-09-20T07:34:10.498Z,14.50
2018-09-20T07:34:45.708Z,14.68
2018-09-20T07:35:21.423Z,14.28
2018-09-20T07:35:56.943Z,13.18
2018-09-20T07:36:32.232Z,13.20
2018-09-20T07:37:07.457Z,13.25
2018-09-20T07:37:42.665Z,13.68
2018-09-20T07:38:18.054Z,13.78
2018-09-20T07:38:53.426Z,14.25
2018-09-20T07:39:28.674Z,14.07
2018-09-20T07:40:03.967Z,12.78
2018-09-20T07:40:39.159Z,13.40
2018-09-20T07:41:14.352Z,16.12
2018-09-20T07:41:49.906Z,13.03
2018-09-20T07:42:25.588Z,13.28
2018-09-20T07:43:00.966Z,13.58
2018-09-20T07:43:36.208Z,13.98
2018-09-20T07:44:11.600Z,14.68
2018-09-20T07:44:47.100Z,14.07